createdAt,value
2022-11-17T00:00:24.248Z,6.40
2022-11-17T00:02:51.435Z,7.72
2022-11-17T00:05:18.844Z,8.20
2022-11-17T00:07:46.351Z,8.15
2022-11-17T00:10:14.080Z,11.93
2022-11-17T00:13:00.100Z,8.23
2022-11-17T00:15:27.265Z,7.63
2022-11-17T00:18:12.892Z,9.48
2022-11-17T00:20:59.373Z,6.53
2022-11-17T00:23:26.570Z,7.55
2022-11-17T00:25:53.668Z,10.48
2022-11-17T00:28:20.797Z,9.50
2022-11-17T00:31:06.549Z,9.32
2022-11-17T00:33:52.489Z,9.55
2022-11-17T00:36:19.603Z,9.90
2022-11-17T00:38:46.651Z,8.35
2022-11-17T00:41:13.745Z,9.15
2022-11-17T00:43:40.818Z,8.93
2022-11-17T00:46:07.935Z,7.97
2022-11-17T00:48:35.014Z,11.57
2022-11-17T00:51:04.306Z,8.50
2022-11-17T00:53:31.795Z,8.48
2022-11-17T00:55:59.010Z,7.70
2022-11-17T00:58:26.166Z,12.20
2022-11-17T01:00:53.404Z,9.20
2022-11-17T01:03:20.513Z,8.90
2022-11-17T01:05:47.609Z,5.70
2022-11-17T01:08:14.698Z,9.15
2022-11-17T01:10:41.847Z,6.88
2022-11-17T01:13:08.986Z,7.95
2022-11-17T01:15:36.075Z,7.20
2022-11-17T01:18:03.204Z,7.30
2022-11-17T01:20:30.315Z,6.20
2022-11-17T01:22:57.449Z,6.07
2022-11-17T01:25:24.556Z,6.88
2022-11-17T01:27:51.656Z,6.63
2022-11-17T01:30:19.053Z,6.22
2022-11-17T01:32:46.305Z,5.07
2022-11-17T01:35:13.402Z,6.78
2022-11-17T01:37:40.525Z,7.68
2022-11-17T01:40:08.137Z,6.70
2022-11-17T01:42:35.296Z,5.38
2022-11-17T01:45:15.829Z,6.72
2022-11-17T01:47:45.744Z,5.22
2022-11-17T01:50:31.595Z,5.05
2022-11-17T01:53:00.793Z,5.80
2022-11-17T01:55:34.551Z,6.93
2022-11-17T01:58:13.439Z,6.32
2022-11-17T02:00:40.821Z,8.77
2022-11-17T02:03:08.225Z,5.88
2022-11-17T02:05:48.821Z,7.18
2022-11-17T02:08:16.580Z,7.97
2022-11-17T02:10:50.169Z,8.38
2022-11-17T02:13:19.431Z,6.75
2022-11-17T02:15:46.611Z,8.18
2022-11-17T02:18:13.932Z,7.53
2022-11-17T02:20:50.968Z,10.60
2022-11-17T02:23:24.049Z,8.15
2022-11-17T02:26:03.355Z,8.45
2022-11-17T02:28:32.407Z,7.13
2022-11-17T02:31:08.504Z,8.05
2022-11-17T02:33:55.766Z,7.00
2022-11-17T02:36:35.538Z,6.85
2022-11-17T02:39:02.645Z,7.35
2022-11-17T02:41:31.914Z,6.05
2022-11-17T02:44:05.523Z,9.70
2022-11-17T02:46:37.324Z,7.93
2022-11-17T02:49:08.094Z,11.13
2022-11-17T02:51:36.860Z,5.43
2022-11-17T02:54:04.406Z,7.30
2022-11-17T02:56:31.542Z,7.40
2022-11-17T02:59:01.112Z,5.50
2022-11-17T03:01:43.603Z,7.40
2022-11-17T03:04:10.721Z,5.07
2022-11-17T03:06:46.490Z,5.35
2022-11-17T03:09:21.773Z,4.82
2022-11-17T03:12:12.961Z,4.45
2022-11-17T03:14:53.073Z,5.65
2022-11-17T03:17:20.164Z,5.13
2022-11-17T03:19:56.365Z,5.05
2022-11-17T03:22:25.080Z,5.13
2022-11-17T03:24:54.386Z,4.20
2022-11-17T03:27:29.890Z,4.65
2022-11-17T03:30:01.320Z,3.88
2022-11-17T03:32:30.977Z,5.07
2022-11-17T03:35:01.420Z,4.88
2022-11-17T03:37:32.112Z,4.13
2022-11-17T03:40:02.220Z,3.42
2022-11-17T03:42:31.329Z,5.63
2022-11-17T03:45:07.295Z,3.13
2022-11-17T03:47:35.257Z,3.33
2022-11-17T03:50:14.880Z,2.83
2022-11-17T03:52:42.961Z,3.53
2022-11-17T03:55:10.305Z,4.85
2022-11-17T03:57:40.167Z,3.53
2022-11-17T04:00:07.529Z,3.63
2022-11-17T04:02:34.627Z,3.50
2022-11-17T04:05:07.709Z,3.03
2022-11-17T04:07:35.974Z,4.68
2022-11-17T04:10:03.989Z,8.93
2022-11-17T04:12:49.882Z,6.28
2022-11-17T04:15:35.814Z,7.30
2022-11-17T04:18:03.145Z,6.30
2022-11-17T04:20:35.925Z,3.47
2022-11-17T04:25:56.050Z,6.85
2022-11-17T04:28:38.806Z,4.97
2022-11-17T04:31:05.993Z,4.13
2022-11-17T04:33:33.870Z,3.58
2022-11-17T04:36:01.467Z,4.93
2022-11-17T04:38:28.699Z,3.70
2022-11-17T04:41:21.752Z,5.78
2022-11-17T04:43:48.949Z,4.53
2022-11-17T04:46:16.759Z,4.13
2022-11-17T04:48:44.442Z,6.80
2022-11-17T04:51:11.894Z,3.58
2022-11-17T04:53:39.052Z,3.55
2022-11-17T04:56:06.522Z,5.03
2022-11-17T04:58:33.828Z,4.82
2022-11-17T05:01:12.398Z,4.53
2022-11-17T05:03:44.269Z,5.68
2022-11-17T05:06:12.866Z,3.95
2022-11-17T05:08:40.281Z,5.07
2022-11-17T05:11:27.170Z,7.38
2022-11-17T05:13:54.365Z,4.28
2022-11-17T05:16:40.916Z,5.82
2022-11-17T05:19:08.933Z,5.35
2022-11-17T05:21:36.178Z,7.25
2022-11-17T05:24:03.288Z,7.22
2022-11-17T05:26:31.645Z,5.22
2022-11-17T05:28:59.868Z,5.78
2022-11-17T05:31:27.499Z,4.20
2022-11-17T05:33:54.622Z,5.78
2022-11-17T05:36:22.441Z,5.25
2022-11-17T05:38:49.822Z,7.03
2022-11-17T05:41:17.567Z,12.95
2022-11-17T05:43:44.818Z,9.38
2022-11-17T05:46:12.173Z,10.02
2022-11-17T05:48:39.960Z,9.63
2022-11-17T05:51:07.462Z,9.10
2022-11-17T05:53:34.750Z,8.43
2022-11-17T05:56:11.004Z,6.68
2022-11-17T05:58:39.078Z,6.47
2022-11-17T06:01:07.576Z,8.48
2022-11-17T06:03:36.888Z,5.03
2022-11-17T06:06:04.307Z,6.50
2022-11-17T06:08:31.563Z,8.13
2022-11-17T06:10:58.649Z,4.57
2022-11-17T06:13:28.942Z,6.55
2022-11-17T06:15:56.737Z,7.50
2022-11-17T06:18:26.684Z,7.60
2022-11-17T06:20:53.979Z,6.60
2022-11-17T06:23:23.349Z,4.97
2022-11-17T06:25:50.454Z,4.60
2022-11-17T06:28:20.406Z,5.50
2022-11-17T06:30:47.922Z,5.28
2022-11-17T06:33:16.159Z,7.00
2022-11-17T06:35:44.189Z,3.72
2022-11-17T06:38:11.294Z,3.92
2022-11-17T06:40:38.434Z,3.58
2022-11-17T06:43:09.489Z,4.00
2022-11-17T06:45:37.706Z,7.55
2022-11-17T06:48:05.546Z,5.80
2022-11-17T06:50:33.013Z,6.45
2022-11-17T06:53:00.650Z,6.03
2022-11-17T06:55:28.339Z,4.80
2022-11-17T06:58:09.116Z,4.10
2022-11-17T07:00:37.078Z,6.57
2022-11-17T07:03:05.661Z,3.80
2022-11-17T07:05:33.295Z,4.70
2022-11-17T07:08:01.080Z,4.43
2022-11-17T07:10:29.043Z,4.60
2022-11-17T07:12:56.228Z,5.43
2022-11-17T07:15:23.372Z,3.80
2022-11-17T07:17:50.542Z,3.45
2022-11-17T07:20:17.860Z,3.17
2022-11-17T07:22:45.333Z,3.70
2022-11-17T07:25:13.231Z,1.83
2022-11-17T07:27:41.140Z,1.63
2022-11-17T07:30:09.784Z,1.98
2022-11-17T07:32:37.424Z,1.48
2022-11-17T07:35:05.944Z,3.15
2022-11-17T07:37:34.290Z,3.58
2022-11-17T07:40:01.423Z,4.03
2022-11-17T07:42:28.571Z,1.95
2022-11-17T07:44:55.827Z,3.00
2022-11-17T07:47:23.034Z,8.45
2022-11-17T07:49:50.176Z,4.28
2022-11-17T07:52:17.344Z,2.45
2022-11-17T07:54:44.538Z,2.58
2022-11-17T07:57:11.757Z,3.15
2022-11-17T07:59:38.885Z,2.42
2022-11-17T08:02:06.084Z,5.45
2022-11-17T08:04:33.202Z,1.60
2022-11-17T08:07:00.766Z,2.95
2022-11-17T08:09:27.934Z,2.60
2022-11-17T08:11:55.386Z,3.58
2022-11-17T08:14:22.567Z,6.32
2022-11-17T08:16:49.701Z,1.50
2022-11-17T08:19:16.875Z,6.13
2022-11-17T08:21:44.707Z,7.13
2022-11-17T08:24:12.835Z,5.45
2022-11-17T08:26:39.977Z,6.97
2022-11-17T08:29:07.167Z,2.47
2022-11-17T08:31:34.389Z,3.65
2022-11-17T08:34:01.568Z,4.60
2022-11-17T08:36:28.783Z,3.10
2022-11-17T08:38:55.924Z,3.90
2022-11-17T08:41:23.223Z,3.00
2022-11-17T08:43:51.449Z,1.90
2022-11-17T08:46:18.667Z,6.47
2022-11-17T08:48:45.847Z,3.60
2022-11-17T08:51:13.540Z,3.13
2022-11-17T08:53:40.819Z,2.45
2022-11-17T08:56:08.818Z,2.35
2022-11-17T08:58:43.185Z,2.13
2022-11-17T09:01:10.985Z,3.63
2022-11-17T09:03:38.293Z,1.42
2022-11-17T09:06:06.066Z,5.82
2022-11-17T09:08:48.607Z,2.55
2022-11-17T09:11:16.628Z,1.17
2022-11-17T09:13:45.584Z,2.42
2022-11-17T09:16:12.781Z,3.25
2022-11-17T09:18:40.827Z,2.15
2022-11-17T09:21:09.954Z,3.15
2022-11-17T09:23:37.605Z,2.10
2022-11-17T09:26:06.211Z,2.42
2022-11-17T09:28:33.818Z,2.95
2022-11-17T09:31:06.141Z,6.25
2022-11-17T09:33:33.284Z,2.83
2022-11-17T09:36:00.406Z,1.42
2022-11-17T09:38:27.597Z,3.67
2022-11-17T09:40:57.031Z,4.30
2022-11-17T09:43:28.623Z,3.22
2022-11-17T09:46:01.839Z,1.98
2022-11-17T09:48:41.783Z,2.88
2022-11-17T09:51:12.503Z,2.92
2022-11-17T09:53:54.946Z,1.58
2022-11-17T09:56:22.530Z,4.25
2022-11-17T09:58:51.837Z,4.13
2022-11-17T10:01:20.081Z,2.42
2022-11-17T10:03:48.568Z,4.05
2022-11-17T10:06:20.773Z,4.00
2022-11-17T10:09:03.307Z,3.30
2022-11-17T10:11:31.710Z,2.45
2022-11-17T10:14:10.845Z,5.28
2022-11-17T10:16:39.097Z,1.75
2022-11-17T10:19:15.559Z,2.03
2022-11-17T10:21:42.872Z,2.33
2022-11-17T10:24:10.337Z,2.53
2022-11-17T10:26:47.825Z,3.13
2022-11-17T10:29:22.800Z,3.85
2022-11-17T10:31:49.974Z,3.85
2022-11-17T10:34:41.023Z,1.90
2022-11-17T10:37:30.035Z,3.53
2022-11-17T10:40:07.671Z,2.90
2022-11-17T10:42:34.897Z,3.03
2022-11-17T10:45:02.655Z,6.93
2022-11-17T10:47:40.210Z,2.80
2022-11-17T10:50:15.147Z,3.72
2022-11-17T10:52:42.336Z,4.13
2022-11-17T10:55:33.910Z,2.85
2022-11-17T10:58:24.612Z,5.18
2022-11-17T11:00:55.671Z,3.47
2022-11-17T11:03:29.090Z,2.95
2022-11-17T11:05:56.195Z,5.35
2022-11-17T11:08:25.189Z,2.53
2022-11-17T11:10:53.220Z,2.88
2022-11-17T11:13:20.419Z,4.28
2022-11-17T11:15:48.151Z,4.63
2022-11-17T11:18:16.520Z,1.67
2022-11-17T11:20:56.928Z,3.85
2022-11-17T11:23:32.964Z,2.85
2022-11-17T11:26:13.288Z,2.33
2022-11-17T11:28:47.970Z,7.18
2022-11-17T11:31:26.245Z,5.47
2022-11-17T11:34:15.228Z,6.55
2022-11-17T11:36:42.322Z,2.63
2022-11-17T11:39:28.927Z,2.78
2022-11-17T11:42:03.306Z,5.95
2022-11-17T11:44:50.154Z,10.55
2022-11-17T11:47:40.372Z,6.07
2022-11-17T11:50:18.961Z,4.15
2022-11-17T11:52:48.840Z,5.32
2022-11-17T11:55:22.990Z,4.55
2022-11-17T11:57:58.254Z,3.45
2022-11-17T12:00:25.485Z,7.80
2022-11-17T12:02:56.612Z,3.53
2022-11-17T12:05:29.606Z,5.28
2022-11-17T12:08:05.995Z,7.65
2022-11-17T12:10:36.298Z,6.28
2022-11-17T12:13:05.039Z,6.68
2022-11-17T12:15:33.438Z,9.90
2022-11-17T12:18:06.327Z,9.57
2022-11-17T12:20:39.249Z,9.95
2022-11-17T12:23:25.202Z,9.98
2022-11-17T12:25:54.449Z,5.07
2022-11-17T12:28:35.562Z,5.38
2022-11-17T12:31:08.234Z,3.13
2022-11-17T12:33:53.708Z,5.32
2022-11-17T12:36:34.038Z,5.70
2022-11-17T12:39:02.224Z,3.20
2022-11-17T12:41:47.986Z,4.32
2022-11-17T12:44:33.842Z,6.00
2022-11-17T12:47:19.701Z,8.85
2022-11-17T12:49:48.391Z,7.85
2022-11-17T12:52:19.000Z,5.25
2022-11-17T12:54:55.467Z,5.85
2022-11-17T12:57:25.990Z,4.43
2022-11-17T13:00:11.994Z,4.70
2022-11-17T13:02:55.985Z,3.72
2022-11-17T13:05:24.200Z,4.03
2022-11-17T13:07:51.412Z,2.55
2022-11-17T13:10:29.442Z,7.03
2022-11-17T13:13:13.011Z,5.18
2022-11-17T13:15:40.487Z,5.93
2022-11-17T13:18:11.793Z,4.57
2022-11-17T13:20:39.975Z,5.75
2022-11-17T13:23:21.428Z,7.70
2022-11-17T13:25:48.878Z,9.52
2022-11-17T13:28:34.008Z,8.02
2022-11-17T13:31:01.395Z,9.20
2022-11-17T13:33:29.700Z,8.07
2022-11-17T13:36:16.603Z,8.82
2022-11-17T13:38:50.623Z,7.18
2022-11-17T13:41:18.607Z,6.00
2022-11-17T13:43:46.262Z,6.47
2022-11-17T13:46:13.627Z,4.65
2022-11-17T13:48:42.808Z,5.55
2022-11-17T13:51:28.347Z,7.82
2022-11-17T13:54:01.474Z,7.53
2022-11-17T13:56:33.408Z,10.95
2022-11-17T13:59:02.022Z,12.00
2022-11-17T14:01:30.902Z,10.27
2022-11-17T14:04:19.519Z,6.15
2022-11-17T14:07:00.911Z,8.38
2022-11-17T14:09:30.692Z,13.48
2022-11-17T14:11:58.713Z,16.20
2022-11-17T14:14:34.637Z,7.15
2022-11-17T14:17:20.046Z,10.98
2022-11-17T14:19:47.811Z,8.90
2022-11-17T14:22:22.377Z,5.80
2022-11-17T14:24:53.274Z,9.23
2022-11-17T14:27:29.728Z,7.50
2022-11-17T14:29:56.879Z,8.70
2022-11-17T14:32:24.031Z,9.38
2022-11-17T14:34:51.148Z,9.73
2022-11-17T14:37:18.510Z,6.75
2022-11-17T14:39:45.662Z,6.97
2022-11-17T14:42:12.792Z,12.45
2022-11-17T14:44:39.933Z,10.65
2022-11-17T14:47:07.112Z,9.20
2022-11-17T14:49:34.379Z,6.93
2022-11-17T14:52:02.729Z,12.35
2022-11-17T14:54:29.854Z,8.50
2022-11-17T14:56:56.967Z,14.98
2022-11-17T14:59:24.046Z,10.75
2022-11-17T15:01:51.163Z,9.15
2022-11-17T15:04:48.785Z,6.07
2022-11-17T15:07:05.566Z,11.50
2022-11-17T15:09:32.804Z,8.93
2022-11-17T15:11:59.960Z,11.95
2022-11-17T15:14:27.104Z,10.27
2022-11-17T15:16:54.222Z,8.40
2022-11-17T15:19:21.363Z,14.35
2022-11-17T15:21:48.515Z,13.05
2022-11-17T15:24:15.777Z,14.90
2022-11-17T15:26:43.126Z,10.50
2022-11-17T15:29:13.370Z,10.60
2022-11-17T15:31:40.701Z,10.55
2022-11-17T15:34:08.055Z,16.55
2022-11-17T15:36:35.183Z,13.65
2022-11-17T15:39:02.330Z,18.58
2022-11-17T15:41:32.879Z,15.50
2022-11-17T15:44:00.369Z,21.05
2022-11-17T15:46:27.454Z,16.33
2022-11-17T15:48:55.731Z,12.93
2022-11-17T15:51:24.244Z,13.07
2022-11-17T15:53:52.128Z,15.43
2022-11-17T15:56:20.867Z,15.82
2022-11-17T15:58:48.591Z,19.92
2022-11-17T16:01:15.844Z,29.80
2022-11-17T16:03:44.364Z,15.32
2022-11-17T16:06:12.035Z,15.38
2022-11-17T16:08:40.605Z,15.75
2022-11-17T16:11:08.243Z,10.23
2022-11-17T16:13:35.588Z,17.77
2022-11-17T16:16:02.896Z,14.73
2022-11-17T16:18:30.008Z,15.75
2022-11-17T16:21:04.624Z,16.60
2022-11-17T16:23:32.173Z,15.32
2022-11-17T16:25:59.318Z,15.50
2022-11-17T16:28:27.098Z,11.82
2022-11-17T16:30:54.187Z,15.40
2022-11-17T16:33:21.704Z,14.20
2022-11-17T16:35:48.874Z,15.75
2022-11-17T16:38:16.993Z,14.85
2022-11-17T16:40:44.374Z,18.33
2022-11-17T16:43:12.332Z,19.80
2022-11-17T16:45:44.662Z,13.07
2022-11-17T16:48:12.294Z,16.80
2022-11-17T16:50:40.357Z,16.35
2022-11-17T16:53:07.617Z,24.33
2022-11-17T16:55:35.631Z,88.50
2022-11-17T16:58:03.551Z,28.13
2022-11-17T17:00:30.989Z,18.85
2022-11-17T17:02:59.551Z,19.45
2022-11-17T17:05:29.355Z,16.75
2022-11-17T17:07:57.164Z,15.77
2022-11-17T17:10:25.074Z,12.68
2022-11-17T17:12:52.222Z,11.23
2022-11-17T17:15:19.486Z,12.63
2022-11-17T17:17:46.674Z,9.07
2022-11-17T17:20:13.854Z,12.88
2022-11-17T17:22:41.111Z,8.30
2022-11-17T17:25:09.300Z,13.73
2022-11-17T17:27:36.396Z,13.95
2022-11-17T17:30:03.595Z,15.18
2022-11-17T17:32:30.810Z,20.27
2022-11-17T17:34:58.157Z,23.42
2022-11-17T17:37:25.291Z,15.15
2022-11-17T17:39:52.461Z,10.68
2022-11-17T17:42:20.459Z,15.88
2022-11-17T17:44:47.561Z,11.90
2022-11-17T17:47:14.955Z,11.02
2022-11-17T17:49:42.109Z,6.05
2022-11-17T17:52:13.688Z,8.27
2022-11-17T17:54:41.163Z,7.13
2022-11-17T17:57:10.388Z,5.07
2022-11-17T17:59:37.584Z,8.98
2022-11-17T18:02:04.774Z,6.97
2022-11-17T18:04:31.941Z,5.22
2022-11-17T18:07:00.273Z,7.30
2022-11-17T18:09:27.755Z,5.72
2022-11-17T18:11:54.904Z,11.55
2022-11-17T18:14:24.153Z,7.40
2022-11-17T18:16:51.846Z,10.80
2022-11-17T18:19:19.591Z,7.13
2022-11-17T18:21:46.872Z,6.65
2022-11-17T18:24:14.193Z,6.68
2022-11-17T18:26:41.359Z,6.30
2022-11-17T18:29:16.585Z,5.10
2022-11-17T18:31:46.591Z,4.80
2022-11-17T18:34:15.421Z,6.57
2022-11-17T18:36:42.530Z,8.50
2022-11-17T18:39:09.739Z,9.93
2022-11-17T18:41:37.224Z,25.27
2022-11-17T18:44:04.707Z,24.20
2022-11-17T18:46:32.628Z,12.77
2022-11-17T18:49:00.345Z,14.50
2022-11-17T18:51:28.891Z,10.10
2022-11-17T18:53:56.708Z,8.32
2022-11-17T18:56:25.592Z,9.52
2022-11-17T18:58:52.773Z,6.70
2022-11-17T19:01:21.336Z,5.07
2022-11-17T19:03:50.122Z,8.43
2022-11-17T19:06:18.201Z,12.65
2022-11-17T19:08:45.359Z,10.68
2022-11-17T19:11:12.765Z,12.23
2022-11-17T19:13:40.803Z,10.93
2022-11-17T19:16:11.353Z,16.95
2022-11-17T19:18:38.530Z,17.63
2022-11-17T19:21:10.763Z,12.65
2022-11-17T19:23:39.859Z,17.73
2022-11-17T19:26:11.172Z,12.10
2022-11-17T19:28:39.270Z,12.30
2022-11-17T19:31:10.901Z,12.00
2022-11-17T19:33:38.859Z,14.40
2022-11-17T19:36:10.615Z,11.30
2022-11-17T19:38:38.657Z,17.85
2022-11-17T19:41:10.033Z,12.32
2022-11-17T19:43:43.351Z,12.50
2022-11-17T19:46:13.371Z,11.30
2022-11-17T19:48:41.370Z,9.75
2022-11-17T19:51:12.903Z,9.65
2022-11-17T19:53:40.197Z,7.40
2022-11-17T19:56:07.691Z,10.63
2022-11-17T19:58:35.259Z,6.82
2022-11-17T20:01:13.672Z,10.50
2022-11-17T20:03:41.424Z,3.63
2022-11-17T20:06:09.541Z,7.88
2022-11-17T20:08:36.730Z,7.00
2022-11-17T20:11:05.116Z,5.13
2022-11-17T20:13:32.446Z,7.18
2022-11-17T20:16:00.343Z,4.50
2022-11-17T20:18:27.833Z,3.80
2022-11-17T20:20:55.158Z,8.05
2022-11-17T20:23:22.725Z,7.88
2022-11-17T20:25:49.880Z,3.45
2022-11-17T20:28:17.234Z,7.75
2022-11-17T20:30:45.786Z,7.78
2022-11-17T20:33:13.300Z,8.27
2022-11-17T20:35:40.488Z,5.80
2022-11-17T20:38:10.491Z,6.25
2022-11-17T20:40:40.162Z,8.45
2022-11-17T20:43:07.255Z,4.82
2022-11-17T20:45:34.434Z,6.28
2022-11-17T20:48:01.607Z,4.53
2022-11-17T20:50:28.801Z,5.60
2022-11-17T20:52:55.882Z,6.13
2022-11-17T20:55:23.992Z,4.97
2022-11-17T20:57:51.088Z,7.05
2022-11-17T21:00:18.338Z,4.85
2022-11-17T21:02:45.456Z,5.13
2022-11-17T21:05:12.572Z,9.82
2022-11-17T21:07:39.752Z,17.85
2022-11-17T21:10:07.056Z,9.80
2022-11-17T21:12:34.237Z,9.02
2022-11-17T21:15:01.351Z,8.57
2022-11-17T21:17:47.304Z,7.82
2022-11-17T21:20:14.493Z,9.65
2022-11-17T21:22:41.601Z,5.47
2022-11-17T21:25:08.922Z,8.70
2022-11-17T21:27:36.006Z,10.93
2022-11-17T21:30:03.150Z,6.43
2022-11-17T21:32:30.325Z,6.35
2022-11-17T21:34:57.812Z,8.05
2022-11-17T21:37:27.122Z,6.55
2022-11-17T21:39:54.241Z,8.10
2022-11-17T21:42:21.335Z,7.57
2022-11-17T21:44:48.437Z,8.90
2022-11-17T21:47:15.611Z,6.53
2022-11-17T21:49:42.729Z,5.95
2022-11-17T21:52:09.866Z,2.95
2022-11-17T21:54:37.115Z,6.13
2022-11-17T21:57:04.342Z,6.70
2022-11-17T21:59:31.533Z,3.40
2022-11-17T22:01:58.615Z,4.82
2022-11-17T22:04:25.720Z,8.25
2022-11-17T22:06:52.917Z,5.13
2022-11-17T22:09:20.213Z,4.80
2022-11-17T22:11:47.360Z,4.20
2022-11-17T22:14:15.399Z,3.15
2022-11-17T22:16:52.344Z,14.27
2022-11-17T22:19:20.504Z,4.97
2022-11-17T22:21:48.568Z,6.10
2022-11-17T22:24:15.675Z,2.88
2022-11-17T22:26:43.963Z,3.13
2022-11-17T22:29:12.457Z,7.70
2022-11-17T22:31:39.657Z,3.38
2022-11-17T22:34:06.837Z,19.98
2022-11-17T22:36:34.004Z,2.78
2022-11-17T22:39:01.142Z,1.77
2022-11-17T22:41:28.285Z,11.35
2022-11-17T22:43:56.447Z,1.27
2022-11-17T22:46:24.884Z,4.45
2022-11-17T22:48:51.979Z,3.03
2022-11-17T22:51:38.064Z,3.70
2022-11-17T22:54:05.744Z,2.20
2022-11-17T22:56:33.312Z,3.65
2022-11-17T22:59:00.402Z,1.42
2022-11-17T23:01:27.633Z,3.50
2022-11-17T23:03:54.828Z,1.98
2022-11-17T23:06:27.063Z,1.40
2022-11-17T23:08:54.624Z,1.67
2022-11-17T23:11:36.503Z,1.23
2022-11-17T23:14:04.575Z,1.13
2022-11-17T23:16:33.064Z,4.03
2022-11-17T23:19:00.223Z,1.08
2022-11-17T23:21:27.509Z,0.93
2022-11-17T23:23:54.669Z,4.93
2022-11-17T23:26:22.398Z,1.63
2022-11-17T23:28:49.550Z,2.05
2022-11-17T23:31:17.801Z,2.90
2022-11-17T23:33:45.920Z,3.53
2022-11-17T23:36:14.250Z,2.95
2022-11-17T23:38:41.408Z,5.85
2022-11-17T23:41:09.516Z,3.05
2022-11-17T23:43:36.785Z,4.18
2022-11-17T23:46:05.632Z,6.13
2022-11-17T23:48:32.836Z,3.42
2022-11-17T23:51:04.388Z,7.20
2022-11-17T23:53:32.014Z,5.20
2022-11-17T23:56:00.110Z,3.50
2022-11-17T23:58:27.395Z,3.28
